sensor_id;sensor_type;location;lat;lon;timestamp;pressure;altitude;pressure_sealevel;temperature;humidity
38267;BME280;24063;51.794;19.578;2023-02-16T00:00:56;99265.13;;;-1.17;100.00
38267;BME280;24063;51.794;19.578;2023-02-16T00:02:11;99266.09;;;-1.18;100.00
38267;BME280;24063;51.794;19.578;2023-02-16T00:03:16;99265.98;;;-1.18;100.00
38267;BME280;24063;51.794;19.578;2023-02-16T00:04:24;99268.78;;;-1.18;100.00
38267;BME280;24063;51.794;19.578;2023-02-16T00:05:30;99265.55;;;-1.19;100.00
38267;BME280;24063;51.794;19.578;2023-02-16T00:06:31;99268.39;;;-1.18;100.00
38267;BME280;24063;51.794;19.578;2023-02-16T00:07:33;99264.39;;;-1.18;100.00
38267;BME280;24063;51.794;19.578;2023-02-16T00:08:35;99261.52;;;-1.18;100.00
38267;BME280;24063;51.794;19.578;2023-02-16T00:09:37;99262.73;;;-1.18;100.00
38267;BME280;24063;51.794;19.578;2023-02-16T00:10:39;99259.56;;;-1.18;100.00
38267;BME280;24063;51.794;19.578;2023-02-16T00:11:41;99259.20;;;-1.18;100.00
38267;BME280;24063;51.794;19.578;2023-02-16T00:13:22;99253.93;;;-1.18;100.00
38267;BME280;24063;51.794;19.578;2023-02-16T00:14:44;99253.85;;;-1.17;100.00
38267;BME280;24063;51.794;19.578;2023-02-16T00:15:46;99254.73;;;-1.17;100.00
38267;BME280;24063;51.794;19.578;2023-02-16T00:16:59;99256.53;;;-1.16;100.00
38267;BME280;24063;51.794;19.578;2023-02-16T00:18:15;99256.73;;;-1.13;100.00
38267;BME280;24063;51.794;19.578;2023-02-16T00:19:29;99257.41;;;-1.11;100.00
38267;BME280;24063;51.794;19.578;2023-02-16T00:20:31;99255.08;;;-1.09;100.00
38267;BME280;24063;51.794;19.578;2023-02-16T00:21:33;99255.45;;;-1.08;100.00
38267;BME280;24063;51.794;19.578;2023-02-16T00:22:34;99254.52;;;-1.08;100.00
38267;BME280;24063;51.794;19.578;2023-02-16T00:23:36;99251.94;;;-1.08;100.00
38267;BME280;24063;51.794;19.578;2023-02-16T00:24:38;99251.45;;;-1.07;100.00
38267;BME280;24063;51.794;19.578;2023-02-16T00:25:40;99247.98;;;-1.06;100.00
38267;BME280;24063;51.794;19.578;2023-02-16T00:26:43;99245.95;;;-1.05;100.00
38267;BME280;24063;51.794;19.578;2023-02-16T00:27:45;99244.17;;;-1.04;100.00
38267;BME280;24063;51.794;19.578;2023-02-16T00:28:52;99243.25;;;-1.02;100.00
38267;BME280;24063;51.794;19.578;2023-02-16T00:29:55;99244.29;;;-1.01;100.00
38267;BME280;24063;51.794;19.578;2023-02-16T00:30:57;99244.04;;;-1.00;100.00
38267;BME280;24063;51.794;19.578;2023-02-16T00:32:02;99246.21;;;-0.98;100.00
38267;BME280;24063;51.794;19.578;2023-02-16T00:33:16;99246.67;;;-0.97;100.00
38267;BME280;24063;51.794;19.578;2023-02-16T00:34:31;99243.83;;;-0.96;100.00
38267;BME280;24063;51.794;19.578;2023-02-16T00:35:33;99243.13;;;-0.94;100.00
38267;BME280;24063;51.794;19.578;2023-02-16T00:36:35;99242.30;;;-0.93;100.00
38267;BME280;24063;51.794;19.578;2023-02-16T00:37:37;99241.11;;;-0.93;100.00
38267;BME280;24063;51.794;19.578;2023-02-16T00:38:39;99240.69;;;-0.95;100.00
38267;BME280;24063;51.794;19.578;2023-02-16T00:39:42;99238.70;;;-0.94;100.00
38267;BME280;24063;51.794;19.578;2023-02-16T00:40:45;99241.56;;;-0.94;100.00
38267;BME280;24063;51.794;19.578;2023-02-16T00:41:47;99240.81;;;-0.94;100.00
38267;BME280;24063;51.794;19.578;2023-02-16T00:42:53;99238.52;;;-0.93;100.00
38267;BME280;24063;51.794;19.578;2023-02-16T00:43:58;99236.88;;;-0.93;100.00
38267;BME280;24063;51.794;19.578;2023-02-16T00:45:00;99233.99;;;-0.92;100.00
38267;BME280;24063;51.794;19.578;2023-02-16T00:46:03;99236.10;;;-0.93;100.00
38267;BME280;24063;51.794;19.578;2023-02-16T00:47:29;99232.39;;;-0.93;100.00
38267;BME280;24063;51.794;19.578;2023-02-16T00:48:33;99232.77;;;-0.93;100.00
38267;BME280;24063;51.794;19.578;2023-02-16T00:49:34;99230.51;;;-0.93;100.00
38267;BME280;24063;51.794;19.578;2023-02-16T00:50:36;99226.95;;;-0.93;100.00
38267;BME280;24063;51.794;19.578;2023-02-16T00:51:38;99225.55;;;-0.93;100.00
38267;BME280;24063;51.794;19.578;2023-02-16T00:52:40;99224.49;;;-0.94;100.00
38267;BME280;24063;51.794;19.578;2023-02-16T00:53:47;99226.59;;;-0.93;100.00
38267;BME280;24063;51.794;19.578;2023-02-16T00:54:48;99226.21;;;-0.93;100.00
38267;BME280;24063;51.794;19.578;2023-02-16T00:55:52;99232.59;;;-0.93;100.00
38267;BME280;24063;51.794;19.578;2023-02-16T00:56:55;99235.41;;;-0.93;100.00
38267;BME280;24063;51.794;19.578;2023-02-16T00:59:14;99232.80;;;-0.92;100.00
38267;BME280;24063;51.794;19.578;2023-02-16T01:00:24;99237.71;;;-0.91;100.00
38267;BME280;24063;51.794;19.578;2023-02-16T01:01:31;99235.99;;;-0.92;100.00
38267;BME280;24063;51.794;19.578;2023-02-16T01:02:33;99236.73;;;-0.92;100.00
38267;BME280;24063;51.794;19.578;2023-02-16T01:03:35;99235.30;;;-0.92;100.00
38267;BME280;24063;51.794;19.578;2023-02-16T01:04:38;99230.89;;;-0.92;100.00
38267;BME280;24063;51.794;19.578;2023-02-16T01:05:40;99231.49;;;-0.93;100.00
38267;BME280;24063;51.794;19.578;2023-02-16T01:06:42;99227.12;;;-0.93;100.00
38267;BME280;24063;51.794;19.578;2023-02-16T01:08:09;99229.73;;;-0.93;100.00
38267;BME280;24063;51.794;19.578;2023-02-16T01:09:30;99221.52;;;-0.94;100.00
38267;BME280;24063;51.794;19.578;2023-02-16T01:10:51;99221.02;;;-0.95;100.00
38267;BME280;24063;51.794;19.578;2023-02-16T01:12:01;99221.15;;;-0.94;100.00
38267;BME280;24063;51.794;19.578;2023-02-16T01:13:04;99219.61;;;-0.92;100.00
38267;BME280;24063;51.794;19.578;2023-02-16T01:14:11;99217.23;;;-0.92;100.00
38267;BME280;24063;51.794;19.578;2023-02-16T01:15:15;99217.50;;;-0.91;100.00
38267;BME280;24063;51.794;19.578;2023-02-16T01:16:24;99216.20;;;-0.91;100.00
38267;BME280;24063;51.794;19.578;2023-02-16T01:17:26;99214.73;;;-0.91;100.00
38267;BME280;24063;51.794;19.578;2023-02-16T01:18:27;99211.77;;;-0.92;100.00
38267;BME280;24063;51.794;19.578;2023-02-16T01:19:29;99211.16;;;-0.93;100.00
38267;BME280;24063;51.794;19.578;2023-02-16T01:20:32;99210.83;;;-0.93;100.00
38267;BME280;24063;51.794;19.578;2023-02-16T01:21:36;99208.91;;;-0.93;100.00
38267;BME280;24063;51.794;19.578;2023-02-16T01:22:38;99204.58;;;-0.94;100.00
38267;BME280;24063;51.794;19.578;2023-02-16T01:23:41;99206.16;;;-0.94;100.00
38267;BME280;24063;51.794;19.578;2023-02-16T01:24:43;99207.27;;;-0.94;100.00
38267;BME280;24063;51.794;19.578;2023-02-16T01:25:44;99209.19;;;-0.94;100.00
38267;BME280;24063;51.794;19.578;2023-02-16T01:26:50;99210.98;;;-0.94;100.00
38267;BME280;24063;51.794;19.578;2023-02-16T01:27:52;99208.23;;;-0.95;100.00
38267;BME280;24063;51.794;19.578;2023-02-16T01:28:55;99210.41;;;-0.96;100.00
38267;BME280;24063;51.794;19.578;2023-02-16T01:29:58;99206.92;;;-0.96;100.00
38267;BME280;24063;51.794;19.578;2023-02-16T01:31:00;99204.84;;;-0.96;100.00
38267;BME280;24063;51.794;19.578;2023-02-16T01:32:02;99205.61;;;-0.97;100.00
38267;BME280;24063;51.794;19.578;2023-02-16T01:33:04;99201.90;;;-0.99;100.00
38267;BME280;24063;51.794;19.578;2023-02-16T01:34:05;99200.59;;;-0.99;100.00
38267;BME280;24063;51.794;19.578;2023-02-16T01:35:09;99199.77;;;-1.00;100.00
38267;BME280;24063;51.794;19.578;2023-02-16T01:36:35;99197.40;;;-1.00;100.00
38267;BME280;24063;51.794;19.578;2023-02-16T01:37:40;99195.43;;;-1.00;100.00
38267;BME280;24063;51.794;19.578;2023-02-16T01:38:42;99196.25;;;-1.00;100.00
38267;BME280;24063;51.794;19.578;2023-02-16T01:39:44;99196.48;;;-0.99;100.00
38267;BME280;24063;51.794;19.578;2023-02-16T01:42:52;99201.56;;;-0.97;100.00
38267;BME280;24063;51.794;19.578;2023-02-16T01:44:02;99201.04;;;-0.97;100.00
38267;BME280;24063;51.794;19.578;2023-02-16T01:45:14;99198.21;;;-0.97;100.00
38267;BME280;24063;51.794;19.578;2023-02-16T01:46:44;99197.27;;;-0.98;100.00
38267;BME280;24063;51.794;19.578;2023-02-16T01:47:53;99195.77;;;-0.99;100.00
38267;BME280;24063;51.794;19.578;2023-02-16T01:48:57;99198.52;;;-0.98;100.00
38267;BME280;24063;51.794;19.578;2023-02-16T01:50:06;99198.98;;;-0.98;100.00
38267;BME280;24063;51.794;19.578;2023-02-16T01:51:21;99196.16;;;-0.98;100.00
38267;BME280;24063;51.794;19.578;2023-02-16T01:52:43;99200.30;;;-0.97;100.00
38267;BME280;24063;51.794;19.578;2023-02-16T01:53:50;99199.52;;;-0.96;100.00
38267;BME280;24063;51.794;19.578;2023-02-16T01:55:04;99201.55;;;-0.95;100.00
38267;BME280;24063;51.794;19.578;2023-02-16T01:56:31;99197.70;;;-0.96;100.00
38267;BME280;24063;51.794;19.578;2023-02-16T01:57:44;99191.95;;;-0.95;100.00
38267;BME280;24063;51.794;19.578;2023-02-16T01:58:54;99192.97;;;-0.95;100.00
38267;BME280;24063;51.794;19.578;2023-02-16T02:00:15;99191.46;;;-0.96;100.00
38267;BME280;24063;51.794;19.578;2023-02-16T02:03:12;99186.77;;;-0.95;100.00
38267;BME280;24063;51.794;19.578;2023-02-16T02:04:48;99185.86;;;-0.95;100.00
38267;BME280;24063;51.794;19.578;2023-02-16T02:06:29;99190.27;;;-0.94;100.00
38267;BME280;24063;51.794;19.578;2023-02-16T02:07:44;99192.42;;;-0.93;100.00
38267;BME280;24063;51.794;19.578;2023-02-16T02:09:13;99193.65;;;-0.93;100.00
38267;BME280;24063;51.794;19.578;2023-02-16T02:11:31;99189.69;;;-0.92;100.00
38267;BME280;24063;51.794;19.578;2023-02-16T02:12:54;99187.48;;;-0.93;100.00
38267;BME280;24063;51.794;19.578;2023-02-16T02:14:26;99187.63;;;-0.94;100.00
38267;BME280;24063;51.794;19.578;2023-02-16T02:15:31;99184.56;;;-0.95;100.00
38267;BME280;24063;51.794;19.578;2023-02-16T02:16:34;99180.09;;;-0.97;100.00
38267;BME280;24063;51.794;19.578;2023-02-16T02:17:36;99179.34;;;-0.98;100.00
38267;BME280;24063;51.794;19.578;2023-02-16T02:18:38;99179.24;;;-0.98;100.00
38267;BME280;24063;51.794;19.578;2023-02-16T02:21:37;99174.79;;;-0.99;100.00
38267;BME280;24063;51.794;19.578;2023-02-16T02:23:22;99172.91;;;-1.00;100.00
38267;BME280;24063;51.794;19.578;2023-02-16T02:28:25;99166.31;;;-1.05;100.00
38267;BME280;24063;51.794;19.578;2023-02-16T02:30:59;99163.42;;;-1.08;100.00
38267;BME280;24063;51.794;19.578;2023-02-16T02:36:29;99158.78;;;-1.07;100.00
38267;BME280;24063;51.794;19.578;2023-02-16T02:37:57;99158.84;;;-1.06;100.00
38267;BME280;24063;51.794;19.578;2023-02-16T02:40:40;99158.73;;;-1.05;100.00
38267;BME280;24063;51.794;19.578;2023-02-16T02:41:56;99153.30;;;-1.06;100.00
38267;BME280;24063;51.794;19.578;2023-02-16T02:43:40;99149.08;;;-1.06;100.00
38267;BME280;24063;51.794;19.578;2023-02-16T02:45:01;99147.25;;;-1.06;100.00
38267;BME280;24063;51.794;19.578;2023-02-16T02:46:33;99146.25;;;-1.05;100.00
38267;BME280;24063;51.794;19.578;2023-02-16T02:47:43;99141.32;;;-1.03;100.00
38267;BME280;24063;51.794;19.578;2023-02-16T02:48:47;99140.75;;;-1.03;100.00
38267;BME280;24063;51.794;19.578;2023-02-16T02:49:53;99137.15;;;-1.04;100.00
38267;BME280;24063;51.794;19.578;2023-02-16T02:51:02;99135.48;;;-1.05;100.00
38267;BME280;24063;51.794;19.578;2023-02-16T02:52:23;99135.30;;;-1.04;100.00
38267;BME280;24063;51.794;19.578;2023-02-16T02:53:25;99133.47;;;-1.04;100.00
38267;BME280;24063;51.794;19.578;2023-02-16T02:54:33;99129.08;;;-1.06;100.00
38267;BME280;24063;51.794;19.578;2023-02-16T02:55:58;99126.08;;;-1.07;100.00
38267;BME280;24063;51.794;19.578;2023-02-16T02:57:52;99129.45;;;-1.09;100.00
38267;BME280;24063;51.794;19.578;2023-02-16T02:59:13;99124.52;;;-1.12;100.00
38267;BME280;24063;51.794;19.578;2023-02-16T03:00:38;99120.86;;;-1.11;100.00
38267;BME280;24063;51.794;19.578;2023-02-16T03:01:49;99116.19;;;-1.10;100.00
38267;BME280;24063;51.794;19.578;2023-02-16T03:02:59;99118.02;;;-1.09;100.00
38267;BME280;24063;51.794;19.578;2023-02-16T03:04:07;99114.81;;;-1.09;100.00
38267;BME280;24063;51.794;19.578;2023-02-16T03:05:14;99116.19;;;-1.09;100.00
38267;BME280;24063;51.794;19.578;2023-02-16T03:06:23;99114.50;;;-1.10;100.00
38267;BME280;24063;51.794;19.578;2023-02-16T03:07:28;99114.96;;;-1.10;100.00
38267;BME280;24063;51.794;19.578;2023-02-16T03:08:59;99107.30;;;-1.11;100.00
38267;BME280;24063;51.794;19.578;2023-02-16T03:10:03;99106.73;;;-1.11;100.00
38267;BME280;24063;51.794;19.578;2023-02-16T03:11:27;99108.89;;;-1.13;100.00
38267;BME280;24063;51.794;19.578;2023-02-16T03:12:49;99113.99;;;-1.13;100.00
38267;BME280;24063;51.794;19.578;2023-02-16T03:15:19;99110.19;;;-1.12;100.00
38267;BME280;24063;51.794;19.578;2023-02-16T03:16:32;99110.64;;;-1.13;100.00
38267;BME280;24063;51.794;19.578;2023-02-16T03:17:37;99117.58;;;-1.13;100.00
38267;BME280;24063;51.794;19.578;2023-02-16T03:19:01;99115.80;;;-1.15;100.00
38267;BME280;24063;51.794;19.578;2023-02-16T03:20:22;99120.13;;;-1.16;100.00
38267;BME280;24063;51.794;19.578;2023-02-16T03:21:44;99118.77;;;-1.16;100.00
38267;BME280;24063;51.794;19.578;2023-02-16T03:23:07;99116.69;;;-1.16;100.00
38267;BME280;24063;51.794;19.578;2023-02-16T03:24:30;99119.14;;;-1.16;100.00
38267;BME280;24063;51.794;19.578;2023-02-16T03:25:53;99111.73;;;-1.18;100.00
38267;BME280;24063;51.794;19.578;2023-02-16T03:27:28;99113.04;;;-1.18;100.00
38267;BME280;24063;51.794;19.578;2023-02-16T03:28:51;99111.23;;;-1.19;100.00
38267;BME280;24063;51.794;19.578;2023-02-16T03:30:14;99112.86;;;-1.21;100.00
38267;BME280;24063;51.794;19.578;2023-02-16T03:31:26;99109.59;;;-1.23;100.00
38267;BME280;24063;51.794;19.578;2023-02-16T03:32:30;99109.90;;;-1.24;100.00
38267;BME280;24063;51.794;19.578;2023-02-16T03:33:34;99108.69;;;-1.26;100.00
38267;BME280;24063;51.794;19.578;2023-02-16T03:34:36;99106.79;;;-1.28;100.00
38267;BME280;24063;51.794;19.578;2023-02-16T03:35:39;99110.20;;;-1.30;100.00
38267;BME280;24063;51.794;19.578;2023-02-16T03:36:45;99111.73;;;-1.30;100.00
38267;BME280;24063;51.794;19.578;2023-02-16T03:37:48;99105.82;;;-1.31;100.00
38267;BME280;24063;51.794;19.578;2023-02-16T03:38:50;99104.05;;;-1.31;100.00
38267;BME280;24063;51.794;19.578;2023-02-16T03:39:53;99104.91;;;-1.31;100.00
38267;BME280;24063;51.794;19.578;2023-02-16T03:41:13;99100.86;;;-1.33;100.00
38267;BME280;24063;51.794;19.578;2023-02-16T03:42:15;99099.02;;;-1.32;100.00
38267;BME280;24063;51.794;19.578;2023-02-16T03:43:17;99099.27;;;-1.33;100.00
38267;BME280;24063;51.794;19.578;2023-02-16T03:44:20;99099.95;;;-1.34;100.00
38267;BME280;24063;51.794;19.578;2023-02-16T03:45:23;99100.23;;;-1.35;100.00
38267;BME280;24063;51.794;19.578;2023-02-16T03:46:25;99096.74;;;-1.35;100.00
38267;BME280;24063;51.794;19.578;2023-02-16T03:47:27;99096.30;;;-1.36;100.00
38267;BME280;24063;51.794;19.578;2023-02-16T03:48:29;99096.48;;;-1.38;100.00
38267;BME280;24063;51.794;19.578;2023-02-16T03:49:30;99094.91;;;-1.39;100.00
38267;BME280;24063;51.794;19.578;2023-02-16T03:50:32;99096.70;;;-1.39;100.00
38267;BME280;24063;51.794;19.578;2023-02-16T03:51:34;99096.61;;;-1.40;100.00
38267;BME280;24063;51.794;19.578;2023-02-16T03:52:36;99093.14;;;-1.41;100.00
38267;BME280;24063;51.794;19.578;2023-02-16T03:53:38;99092.61;;;-1.41;100.00
38267;BME280;24063;51.794;19.578;2023-02-16T03:54:39;99093.60;;;-1.42;100.00
38267;BME280;24063;51.794;19.578;2023-02-16T03:55:44;99090.80;;;-1.42;100.00
38267;BME280;24063;51.794;19.578;2023-02-16T03:56:46;99089.70;;;-1.42;100.00
38267;BME280;24063;51.794;19.578;2023-02-16T03:57:48;99092.19;;;-1.42;100.00
38267;BME280;24063;51.794;19.578;2023-02-16T03:58:50;99088.66;;;-1.43;100.00
38267;BME280;24063;51.794;19.578;2023-02-16T03:59:52;99083.27;;;-1.44;100.00
38267;BME280;24063;51.794;19.578;2023-02-16T04:00:54;99081.92;;;-1.44;100.00
38267;BME280;24063;51.794;19.578;2023-02-16T04:01:57;99077.83;;;-1.45;100.00
38267;BME280;24063;51.794;19.578;2023-02-16T04:03:00;99077.08;;;-1.47;100.00
38267;BME280;24063;51.794;19.578;2023-02-16T04:04:02;99078.69;;;-1.48;100.00
38267;BME280;24063;51.794;19.578;2023-02-16T04:05:04;99081.54;;;-1.49;100.00
38267;BME280;24063;51.794;19.578;2023-02-16T04:06:06;99075.66;;;-1.49;100.00
38267;BME280;24063;51.794;19.578;2023-02-16T04:07:08;99075.19;;;-1.50;100.00
38267;BME280;24063;51.794;19.578;2023-02-16T04:08:11;99077.15;;;-1.50;100.00
38267;BME280;24063;51.794;19.578;2023-02-16T04:09:13;99077.79;;;-1.51;100.00
38267;BME280;24063;51.794;19.578;2023-02-16T04:10:15;99077.42;;;-1.51;100.00
38267;BME280;24063;51.794;19.578;2023-02-16T04:11:17;99078.52;;;-1.53;100.00
38267;BME280;24063;51.794;19.578;2023-02-16T04:12:57;99080.90;;;-1.54;100.00
38267;BME280;24063;51.794;19.578;2023-02-16T04:13:59;99079.55;;;-1.54;100.00
38267;BME280;24063;51.794;19.578;2023-02-16T04:15:07;99078.40;;;-1.55;100.00
38267;BME280;24063;51.794;19.578;2023-02-16T04:16:09;99078.71;;;-1.56;100.00
38267;BME280;24063;51.794;19.578;2023-02-16T04:17:11;99081.23;;;-1.57;100.00
38267;BME280;24063;51.794;19.578;2023-02-16T04:18:13;99079.85;;;-1.57;100.00
38267;BME280;24063;51.794;19.578;2023-02-16T04:19:15;99083.17;;;-1.58;100.00
38267;BME280;24063;51.794;19.578;2023-02-16T04:20:20;99082.20;;;-1.59;100.00
38267;BME280;24063;51.794;19.578;2023-02-16T04:21:22;99082.76;;;-1.59;100.00
38267;BME280;24063;51.794;19.578;2023-02-16T04:22:23;99082.83;;;-1.59;100.00
38267;BME280;24063;51.794;19.578;2023-02-16T04:23:25;99081.25;;;-1.58;100.00
38267;BME280;24063;51.794;19.578;2023-02-16T04:24:27;99083.83;;;-1.57;100.00
38267;BME280;24063;51.794;19.578;2023-02-16T04:25:29;99082.98;;;-1.58;100.00
38267;BME280;24063;51.794;19.578;2023-02-16T04:26:31;99083.59;;;-1.59;100.00
38267;BME280;24063;51.794;19.578;2023-02-16T04:27:35;99083.46;;;-1.59;100.00
38267;BME280;24063;51.794;19.578;2023-02-16T04:28:37;99081.70;;;-1.59;100.00
38267;BME280;24063;51.794;19.578;2023-02-16T04:29:38;99080.63;;;-1.60;100.00
38267;BME280;24063;51.794;19.578;2023-02-16T04:30:40;99080.91;;;-1.60;100.00
38267;BME280;24063;51.794;19.578;2023-02-16T04:31:42;99079.77;;;-1.60;100.00
38267;BME280;24063;51.794;19.578;2023-02-16T04:32:44;99083.44;;;-1.60;100.00
38267;BME280;24063;51.794;19.578;2023-02-16T04:33:46;99083.77;;;-1.60;100.00
38267;BME280;24063;51.794;19.578;2023-02-16T04:34:48;99084.23;;;-1.59;100.00
38267;BME280;24063;51.794;19.578;2023-02-16T04:35:50;99082.05;;;-1.59;100.00
38267;BME280;24063;51.794;19.578;2023-02-16T04:36:52;99081.77;;;-1.58;100.00
38267;BME280;24063;51.794;19.578;2023-02-16T04:37:53;99082.21;;;-1.57;100.00
38267;BME280;24063;51.794;19.578;2023-02-16T04:38:55;99073.13;;;-1.57;100.00
38267;BME280;24063;51.794;19.578;2023-02-16T04:39:57;99073.13;;;-1.57;100.00
38267;BME280;24063;51.794;19.578;2023-02-16T04:40:59;99070.52;;;-1.57;100.00
38267;BME280;24063;51.794;19.578;2023-02-16T04:42:02;99070.66;;;-1.58;100.00
38267;BME280;24063;51.794;19.578;2023-02-16T04:43:04;99067.93;;;-1.60;100.00
38267;BME280;24063;51.794;19.578;2023-02-16T04:44:05;99069.47;;;-1.62;100.00
38267;BME280;24063;51.794;19.578;2023-02-16T04:45:09;99069.72;;;-1.62;100.00
38267;BME280;24063;51.794;19.578;2023-02-16T04:46:11;99072.60;;;-1.62;100.00
38267;BME280;24063;51.794;19.578;2023-02-16T04:47:13;99073.15;;;-1.61;100.00
38267;BME280;24063;51.794;19.578;2023-02-16T04:48:15;99069.02;;;-1.61;100.00
38267;BME280;24063;51.794;19.578;2023-02-16T04:49:17;99069.50;;;-1.59;100.00
38267;BME280;24063;51.794;19.578;2023-02-16T04:50:18;99067.93;;;-1.58;100.00
38267;BME280;24063;51.794;19.578;2023-02-16T04:51:20;99069.73;;;-1.56;100.00
38267;BME280;24063;51.794;19.578;2023-02-16T04:52:22;99070.69;;;-1.56;100.00
38267;BME280;24063;51.794;19.578;2023-02-16T04:53:24;99071.52;;;-1.55;100.00
38267;BME280;24063;51.794;19.578;2023-02-16T04:54:26;99071.30;;;-1.53;100.00
38267;BME280;24063;51.794;19.578;2023-02-16T04:55:28;99072.43;;;-1.53;100.00
38267;BME280;24063;51.794;19.578;2023-02-16T04:56:31;99074.02;;;-1.52;100.00
38267;BME280;24063;51.794;19.578;2023-02-16T04:57:33;99073.98;;;-1.54;100.00
38267;BME280;24063;51.794;19.578;2023-02-16T04:58:35;99073.36;;;-1.54;100.00
38267;BME280;24063;51.794;19.578;2023-02-16T04:59:37;99073.39;;;-1.54;100.00
38267;BME280;24063;51.794;19.578;2023-02-16T05:00:40;99073.10;;;-1.55;100.00
38267;BME280;24063;51.794;19.578;2023-02-16T05:01:42;99074.77;;;-1.56;100.00
38267;BME280;24063;51.794;19.578;2023-02-16T05:02:44;99075.27;;;-1.55;100.00
38267;BME280;24063;51.794;19.578;2023-02-16T05:03:46;99076.73;;;-1.53;100.00
38267;BME280;24063;51.794;19.578;2023-02-16T05:04:49;99077.82;;;-1.52;100.00
38267;BME280;24063;51.794;19.578;2023-02-16T05:05:51;99078.32;;;-1.51;100.00
38267;BME280;24063;51.794;19.578;2023-02-16T05:06:53;99081.67;;;-1.51;100.00
38267;BME280;24063;51.794;19.578;2023-02-16T05:07:55;99077.55;;;-1.51;100.00
38267;BME280;24063;51.794;19.578;2023-02-16T05:08:57;99077.39;;;-1.51;100.00
38267;BME280;24063;51.794;19.578;2023-02-16T05:09:58;99079.02;;;-1.51;100.00
38267;BME280;24063;51.794;19.578;2023-02-16T05:11:00;99078.80;;;-1.52;100.00
38267;BME280;24063;51.794;19.578;2023-02-16T05:12:21;99079.73;;;-1.53;100.00
38267;BME280;24063;51.794;19.578;2023-02-16T05:13:41;99079.58;;;-1.53;100.00
38267;BME280;24063;51.794;19.578;2023-02-16T05:15:04;99079.35;;;-1.54;100.00
38267;BME280;24063;51.794;19.578;2023-02-16T05:16:06;99078.42;;;-1.54;100.00
38267;BME280;24063;51.794;19.578;2023-02-16T05:17:10;99079.61;;;-1.53;100.00
38267;BME280;24063;51.794;19.578;2023-02-16T05:18:13;99076.51;;;-1.54;100.00
38267;BME280;24063;51.794;19.578;2023-02-16T05:19:15;99076.41;;;-1.55;100.00
38267;BME280;24063;51.794;19.578;2023-02-16T05:20:17;99080.73;;;-1.55;100.00
38267;BME280;24063;51.794;19.578;2023-02-16T05:21:19;99076.20;;;-1.56;100.00
38267;BME280;24063;51.794;19.578;2023-02-16T05:22:33;99076.10;;;-1.57;100.00
38267;BME280;24063;51.794;19.578;2023-02-16T05:23:35;99078.79;;;-1.57;100.00
38267;BME280;24063;51.794;19.578;2023-02-16T05:24:37;99079.01;;;-1.58;100.00
38267;BME280;24063;51.794;19.578;2023-02-16T05:25:38;99079.09;;;-1.59;100.00
38267;BME280;24063;51.794;19.578;2023-02-16T05:26:40;99076.14;;;-1.60;100.00
38267;BME280;24063;51.794;19.578;2023-02-16T05:27:42;99075.86;;;-1.59;100.00
38267;BME280;24063;51.794;19.578;2023-02-16T05:28:44;99075.45;;;-1.60;100.00
38267;BME280;24063;51.794;19.578;2023-02-16T05:29:46;99074.91;;;-1.60;100.00
38267;BME280;24063;51.794;19.578;2023-02-16T05:30:48;99078.70;;;-1.60;100.00
38267;BME280;24063;51.794;19.578;2023-02-16T05:31:50;99076.55;;;-1.60;100.00
38267;BME280;24063;51.794;19.578;2023-02-16T05:32:52;99073.62;;;-1.62;100.00
38267;BME280;24063;51.794;19.578;2023-02-16T05:33:55;99079.07;;;-1.60;100.00
38267;BME280;24063;51.794;19.578;2023-02-16T05:34:57;99079.98;;;-1.59;100.00
38267;BME280;24063;51.794;19.578;2023-02-16T05:35:59;99077.15;;;-1.58;100.00
38267;BME280;24063;51.794;19.578;2023-02-16T05:37:01;99075.05;;;-1.59;100.00
38267;BME280;24063;51.794;19.578;2023-02-16T05:38:03;99075.64;;;-1.60;100.00
38267;BME280;24063;51.794;19.578;2023-02-16T05:39:04;99074.77;;;-1.61;100.00
38267;BME280;24063;51.794;19.578;2023-02-16T05:40:07;99076.14;;;-1.63;100.00
38267;BME280;24063;51.794;19.578;2023-02-16T05:41:09;99076.21;;;-1.63;100.00
38267;BME280;24063;51.794;19.578;2023-02-16T05:42:11;99072.42;;;-1.64;100.00
38267;BME280;24063;51.794;19.578;2023-02-16T05:43:13;99072.80;;;-1.64;100.00
38267;BME280;24063;51.794;19.578;2023-02-16T05:44:15;99072.25;;;-1.64;100.00
38267;BME280;24063;51.794;19.578;2023-02-16T05:45:16;99072.73;;;-1.63;100.00
38267;BME280;24063;51.794;19.578;2023-02-16T05:46:20;99070.01;;;-1.64;100.00
38267;BME280;24063;51.794;19.578;2023-02-16T05:47:22;99073.55;;;-1.64;100.00
38267;BME280;24063;51.794;19.578;2023-02-16T05:48:24;99074.44;;;-1.64;100.00
38267;BME280;24063;51.794;19.578;2023-02-16T05:49:26;99072.98;;;-1.65;100.00
38267;BME280;24063;51.794;19.578;2023-02-16T05:50:28;99074.34;;;-1.67;100.00
38267;BME280;24063;51.794;19.578;2023-02-16T05:51:33;99070.08;;;-1.68;100.00
38267;BME280;24063;51.794;19.578;2023-02-16T05:52:36;99072.97;;;-1.68;100.00
38267;BME280;24063;51.794;19.578;2023-02-16T05:53:38;99074.36;;;-1.68;100.00
38267;BME280;24063;51.794;19.578;2023-02-16T05:54:39;99073.80;;;-1.70;100.00
38267;BME280;24063;51.794;19.578;2023-02-16T05:55:42;99069.92;;;-1.71;100.00
38267;BME280;24063;51.794;19.578;2023-02-16T05:56:47;99070.20;;;-1.72;100.00
38267;BME280;24063;51.794;19.578;2023-02-16T05:57:49;99066.19;;;-1.73;100.00
38267;BME280;24063;51.794;19.578;2023-02-16T05:58:52;99066.70;;;-1.74;100.00
38267;BME280;24063;51.794;19.578;2023-02-16T05:59:55;99068.45;;;-1.75;100.00
38267;BME280;24063;51.794;19.578;2023-02-16T06:00:56;99067.23;;;-1.77;100.00
38267;BME280;24063;51.794;19.578;2023-02-16T06:01:59;99066.81;;;-1.78;100.00
38267;BME280;24063;51.794;19.578;2023-02-16T06:03:01;99069.46;;;-1.78;100.00
38267;BME280;24063;51.794;19.578;2023-02-16T06:04:03;99069.43;;;-1.77;100.00
38267;BME280;24063;51.794;19.578;2023-02-16T06:05:06;99070.84;;;-1.79;100.00
38267;BME280;24063;51.794;19.578;2023-02-16T06:06:08;99071.69;;;-1.80;100.00
38267;BME280;24063;51.794;19.578;2023-02-16T06:07:10;99068.31;;;-1.81;100.00